Time;durP1;ratioP1;P1;durP2;ratioP2;P2;SDS_P1;SDS_P2;PMS_P1;PMS_P2;Temp;Humidity;BMP_temperature;BMP_pressure;BME280_temperature;BME280_humidity;BME280_pressure;Samples;Min_cycle;Max_cycle;Signal;HPM_P1;HPM_P2
2021/12/13 00:01:13;;;;;;;12.38;3.20;;;23.20;66.80;;;;;;5072191;28;20032;-56
2021/12/13 00:03:49;;;;;;;12.07;2.75;;;23.20;66.30;;;;;;5072679;28;20378;-58
2021/12/13 00:06:29;;;;;;;9.60;2.67;;;23.30;66.70;;;;;;5071892;28;20352;-56
2021/12/13 00:09:01;;;;;;;8.05;2.60;;;23.30;66.70;;;;;;5072567;28;20028;-53
2021/12/13 00:11:35;;;;;;;;;;;23.40;67.80;;;;;;5072819;28;20111;-56
2021/12/13 00:14:11;;;;;;;6.68;2.33;;;23.40;67.10;;;;;;5072054;28;19905;-50
2021/12/13 00:16:56;;;;;;;9.05;2.50;;;23.40;67.90;;;;;;5071879;28;20044;-56
2021/12/13 00:19:30;;;;;;;8.70;2.40;;;23.50;68.20;;;;;;5072292;28;20020;-58
2021/12/13 00:22:02;;;;;;;6.90;2.65;;;23.50;68.20;;;;;;5072017;28;20024;-58
2021/12/13 00:24:33;;;;;;;9.88;2.90;;;23.60;67.60;;;;;;5072342;28;20032;-54
2021/12/13 00:27:10;;;;;;;7.32;2.55;;;23.60;68.70;;;;;;5072125;28;20025;-57
2021/12/13 00:29:52;;;;;;;9.95;2.45;;;23.60;68.20;;;;;;5072157;28;20020;-57
2021/12/13 00:32:38;;;;;;;;;;;23.60;67.10;;;;;;5071565;28;20055;-59
2021/12/13 00:35:13;;;;;;;10.85;2.90;;;23.60;67.80;;;;;;5051282;28;19960;-55
2021/12/13 00:37:50;;;;;;;8.40;2.30;;;23.70;67.70;;;;;;5072456;28;20017;-54
2021/12/13 00:40:26;;;;;;;7.95;2.70;;;23.70;67.40;;;;;;5072538;28;20028;-57
2021/12/13 00:43:09;;;;;;;8.80;2.60;;;23.70;67.20;;;;;;5071817;28;20020;-50
2021/12/13 00:45:46;;;;;;;8.57;2.25;;;23.80;67.30;;;;;;5072399;28;20062;-58
2021/12/13 00:48:14;;;;;;;8.13;2.80;;;23.80;67.20;;;;;;5070177;28;20040;-58
2021/12/13 00:50:57;;;;;;;8.57;2.65;;;23.90;67.30;;;;;;5072058;28;20178;-57
2021/12/13 00:53:25;;;;;;;11.52;2.78;;;23.80;67.80;;;;;;5071752;28;20137;-55
2021/12/13 00:55:53;;;;;;;9.55;2.92;;;23.90;68.30;;;;;;5071589;28;20158;-60
2021/12/13 00:58:24;;;;;;;6.18;2.40;;;23.90;67.70;;;;;;5072515;28;20024;-61
2021/12/13 01:01:06;;;;;;;7.55;2.90;;;23.90;67.70;;;;;;5072152;28;20021;-60
2021/12/13 01:03:41;;;;;;;5.97;2.00;;;24.00;68.90;;;;;;5072056;28;20033;-56
2021/12/13 01:06:36;;;;;;;6.88;2.00;;;24.00;67.60;;;;;;5075778;28;20029;-58
2021/12/13 01:09:22;;;;;;;7.07;2.20;;;24.00;68.10;;;;;;5076269;28;20024;-57
2021/12/13 01:12:03;;;;;;;7.57;2.47;;;24.10;67.90;;;;;;5075863;28;20031;-60
2021/12/13 01:14:43;;;;;;;7.25;2.40;;;24.10;68.70;;;;;;5076291;28;20119;-53
2021/12/13 01:17:26;;;;;;;6.53;2.58;;;24.20;68.10;;;;;;5075858;28;20475;-57
2021/12/13 01:20:05;;;;;;;9.27;2.70;;;24.20;69.20;;;;;;5075659;28;20037;-57
2021/12/13 01:22:54;;;;;;;8.95;2.65;;;24.20;68.00;;;;;;5075845;28;20158;-60
2021/12/13 01:28:27;;;;;;;6.20;2.22;;;24.20;69.10;;;;;;5074979;28;20023;-56
2021/12/13 01:31:05;;;;;;;7.95;2.60;;;24.30;68.20;;;;;;5075066;28;20438;-54
2021/12/13 01:33:33;;;;;;;6.75;2.60;;;24.30;68.90;;;;;;5075281;28;20104;-58
2021/12/13 01:36:05;;;;;;;7.22;2.40;;;24.40;69.40;;;;;;5074968;28;20032;-50
2021/12/13 01:38:45;;;;;;;5.53;1.73;;;24.30;70.00;;;;;;5075143;28;20029;-57
2021/12/13 01:41:18;;;;;;;4.82;2.00;;;24.40;69.60;;;;;;5072904;28;20120;-59
2021/12/13 01:43:53;;;;;;;7.20;2.33;;;24.40;69.20;;;;;;5074649;28;20329;-54
2021/12/13 01:46:24;;;;;;;8.85;2.00;;;24.40;68.80;;;;;;5074919;28;20120;-58
2021/12/13 01:48:53;;;;;;;7.25;2.25;;;24.50;69.20;;;;;;5073946;28;20024;-55
2021/12/13 01:51:26;;;;;;;8.15;2.38;;;24.50;70.00;;;;;;5074879;28;20480;-60
2021/12/13 01:54:14;;;;;;;5.32;2.15;;;24.50;69.90;;;;;;5074612;28;20120;-60
2021/12/13 01:56:54;;;;;;;5.35;2.42;;;24.50;68.90;;;;;;5074440;28;20120;-56
2021/12/13 02:02:15;;;;;;;5.90;2.20;;;24.50;69.80;;;;;;5074287;28;20107;-59
2021/12/13 02:04:44;;;;;;;6.55;2.50;;;24.50;69.00;;;;;;5074732;28;20444;-54
2021/12/13 02:07:15;;;;;;;5.40;2.15;;;24.60;68.60;;;;;;5074583;28;20094;-54
2021/12/13 02:09:45;;;;;;;8.38;2.60;;;24.60;68.60;;;;;;5074899;28;20032;-51
2021/12/13 02:12:15;;;;;;;5.75;2.05;;;24.60;69.40;;;;;;5074564;28;20066;-55
2021/12/13 02:16:58;;;;;;;6.38;2.10;;;24.60;68.40;;;;;;5074151;28;20479;-55
2021/12/13 02:17:43;;;;;;;5.75;2.28;;;24.60;69.10;;;;;;5073705;28;20055;-52
2021/12/13 02:20:20;;;;;;;8.40;2.33;;;24.60;68.70;;;;;;5074385;28;20050;-54
2021/12/13 02:22:51;;;;;;;6.32;1.98;;;24.70;68.60;;;;;;5074269;28;20486;-59
2021/12/13 02:25:27;;;;;;;5.07;1.90;;;24.70;69.00;;;;;;5073774;28;20057;-55
2021/12/13 02:28:05;;;;;;;5.80;2.35;;;24.60;70.00;;;;;;5074169;28;20420;-56
2021/12/13 02:30:45;;;;;;;5.35;2.35;;;24.70;70.00;;;;;;5074432;28;20497;-52
2021/12/13 02:33:19;;;;;;;6.30;2.05;;;24.70;70.30;;;;;;5074255;28;20052;-54
2021/12/13 02:35:53;;;;;;;5.57;1.85;;;24.70;69.50;;;;;;5073019;28;20036;-56
2021/12/13 02:38:22;;;;;;;5.07;1.77;;;24.60;71.10;;;;;;5074235;28;20446;-59
2021/12/13 02:40:51;;;;;;;4.90;1.70;;;24.70;70.00;;;;;;5072376;28;20021;-51
2021/12/13 02:43:22;;;;;;;6.00;2.20;;;24.70;71.30;;;;;;5074532;28;20459;-58
2021/12/13 02:45:53;;;;;;;8.68;2.65;;;24.70;70.80;;;;;;5073752;28;20024;-56
2021/12/13 02:48:23;;;;;;;;;;;24.70;71.00;;;;;;5074064;28;20535;-51
2021/12/13 02:50:56;;;;;;;5.65;2.22;;;24.80;70.60;;;;;;5072644;28;19912;-56
2021/12/13 02:53:33;;;;;;;9.55;2.55;;;24.80;69.70;;;;;;5065818;28;20933;-54
2021/12/13 02:56:05;;;;;;;7.90;2.55;;;24.90;69.00;;;;;;5068916;28;20033;-54
2021/12/13 02:58:34;;;;;;;8.93;2.90;;;24.90;70.60;;;;;;5071428;28;20463;-54
2021/12/13 03:01:25;;;;;;;6.07;2.58;;;25.00;71.10;;;;;;5068111;28;20279;-53
2021/12/13 03:03:57;;;;;;;5.97;2.55;;;24.90;72.00;;;;;;5069685;28;20086;-52
2021/12/13 03:06:38;;;;;;;6.38;2.60;;;24.90;71.00;;;;;;5069543;28;20021;-49
2021/12/13 03:09:22;;;;;;;12.73;2.90;;;25.00;71.30;;;;;;5067480;28;20074;-54
2021/12/13 03:11:52;;;;;;;7.15;2.58;;;25.00;70.40;;;;;;5067255;28;20502;-51
2021/12/13 03:14:24;;;;;;;13.85;3.58;;;25.00;66.00;;;;;;5070541;28;20471;-56
2021/12/13 03:16:51;;;;;;;6.72;2.60;;;25.20;69.30;;;;;;5070539;28;20070;-53
2021/12/13 03:19:35;;;;;;;8.75;2.72;;;25.00;70.20;;;;;;5068175;28;20438;-55
2021/12/13 03:22:44;;;;;;;8.88;3.00;;;24.90;66.40;;;;;;5066465;28;20029;-52
2021/12/13 03:25:26;;;;;;;7.95;3.08;;;24.70;64.50;;;;;;5072985;28;20025;-58
2021/12/13 03:28:11;;;;;;;;;;;24.80;71.60;;;;;;5073304;28;20020;-57
2021/12/13 03:31:09;;;;;;;7.90;2.75;;;24.90;71.40;;;;;;5071525;28;19904;-54
2021/12/13 03:33:52;;;;;;;8.77;3.15;;;25.00;71.00;;;;;;5072660;28;20505;-55
2021/12/13 03:36:38;;;;;;;5.38;2.67;;;25.10;72.00;;;;;;5070754;28;20041;-55
2021/12/13 03:39:09;;;;;;;9.20;3.03;;;25.10;71.50;;;;;;5070207;28;20028;-52
2021/12/13 03:41:41;;;;;;;10.57;2.55;;;25.20;70.10;;;;;;5072836;28;20035;-57
2021/12/13 03:45:00;;;;;;;7.55;2.88;;;25.20;69.90;;;;;;5072260;28;20025;-52
2021/12/13 03:47:37;;;;;;;8.60;2.80;;;25.10;66.90;;;;;;5073158;28;20029;-56
2021/12/13 03:50:11;;;;;;;9.52;3.53;;;24.80;70.10;;;;;;5071686;28;20059;-55
2021/12/13 03:52:43;;;;;;;12.98;2.83;;;24.90;72.40;;;;;;5063196;28;20063;-54
2021/12/13 03:55:13;;;;;;;11.98;2.75;;;24.80;64.70;;;;;;5068293;28;20070;-51
2021/12/13 03:58:05;;;;;;;9.48;2.83;;;24.80;67.50;;;;;;5068866;28;20091;-55
2021/12/13 04:00:36;;;;;;;7.35;2.50;;;24.70;67.60;;;;;;5064982;28;20031;-58
2021/12/13 04:03:08;;;;;;;19.73;2.65;;;24.90;66.50;;;;;;5069580;28;20020;-55
2021/12/13 04:05:39;;;;;;;10.18;3.20;;;24.60;64.70;;;;;;5070129;28;20040;-55
2021/12/13 04:08:11;;;;;;;9.77;3.00;;;24.70;69.00;;;;;;5069459;28;20071;-55
2021/12/13 04:10:40;;;;;;;;;;;24.90;65.30;;;;;;5066713;28;20115;-57
2021/12/13 04:13:15;;;;;;;12.02;3.05;;;24.70;69.80;;;;;;5069917;28;19926;-56
2021/12/13 04:16:05;;;;;;;17.27;3.53;;;24.50;69.10;;;;;;5069719;28;20040;-53
2021/12/13 04:19:06;;;;;;;10.73;2.65;;;24.30;64.50;;;;;;5065809;28;20017;-50
2021/12/13 04:21:43;;;;;;;12.68;3.15;;;24.50;67.70;;;;;;5066095;28;20523;-56
2021/12/13 04:24:17;;;;;;;16.73;3.92;;;24.50;66.10;;;;;;5066389;28;20047;-55
2021/12/13 04:26:51;;;;;;;10.25;2.40;;;24.40;69.80;;;;;;5069343;28;20104;-53
2021/12/13 04:29:32;;;;;;;14.68;3.70;;;24.30;70.10;;;;;;5069559;28;20028;-55
2021/12/13 04:32:39;;;;;;;9.20;2.75;;;24.50;66.70;;;;;;5067420;28;20155;-54
2021/12/13 04:35:12;;;;;;;10.18;3.28;;;24.50;65.20;;;;;;5056485;28;20417;-51
2021/12/13 04:37:43;;;;;;;14.20;3.40;;;24.30;65.00;;;;;;5066000;28;20123;-57
2021/12/13 04:40:26;;;;;;;8.60;2.30;;;24.50;70.20;;;;;;5065092;28;20080;-54
2021/12/13 04:43:16;;;;;;;8.10;2.35;;;24.50;69.80;;;;;;5072878;28;20493;-59
2021/12/13 04:45:53;;;;;;;10.15;2.60;;;24.50;71.20;;;;;;5073590;28;20032;-54
2021/12/13 04:48:24;;;;;;;10.02;2.67;;;24.70;66.30;;;;;;5073029;28;20024;-56
2021/12/13 04:51:16;;;;;;;9.82;2.90;;;24.50;65.70;;;;;;5070156;28;20094;-54
2021/12/13 04:53:53;;;;;;;11.80;2.55;;;24.60;66.30;;;;;;5073043;28;20406;-55
2021/12/13 04:56:28;;;;;;;10.88;3.17;;;24.80;71.10;;;;;;5070230;28;20040;-52
2021/12/13 04:58:59;;;;;;;11.82;2.95;;;24.70;70.40;;;;;;5072268;28;20020;-52
2021/12/13 05:01:27;;;;;;;9.57;2.63;;;24.50;68.30;;;;;;5069052;28;20100;-54
2021/12/13 05:03:59;;;;;;;11.75;3.55;;;24.60;72.80;;;;;;5072841;28;20027;-55
2021/12/13 05:06:32;;;;;;;11.85;2.55;;;24.60;70.00;;;;;;5072247;28;20032;-56
2021/12/13 05:09:05;;;;;;;10.48;2.88;;;24.60;67.20;;;;;;5073101;28;20032;-54
2021/12/13 05:11:46;;;;;;;5.50;2.20;;;24.40;67.70;;;;;;5069865;28;20479;-50
2021/12/13 05:14:13;;;;;;;9.82;3.15;;;24.40;70.80;;;;;;5071943;28;20505;-57
2021/12/13 05:16:49;;;;;;;10.30;2.88;;;24.50;65.50;;;;;;5072866;28;20051;-56
2021/12/13 05:19:37;;;;;;;11.07;3.47;;;24.50;72.40;;;;;;5071999;28;20388;-53
2021/12/13 05:22:07;;;;;;;5.13;2.13;;;24.50;68.60;;;;;;5069735;28;20029;-52
2021/12/13 05:24:51;;;;;;;7.82;2.72;;;24.50;69.90;;;;;;5072087;28;20032;-56
2021/12/13 05:27:35;;;;;;;13.60;3.20;;;24.50;69.70;;;;;;5072925;28;20032;-57
2021/12/13 05:30:20;;;;;;;7.07;2.03;;;24.40;70.90;;;;;;5068407;28;20027;-52
2021/12/13 05:32:57;;;;;;;8.00;2.53;;;24.40;67.00;;;;;;5072567;28;20029;-56
2021/12/13 05:35:24;;;;;;;8.80;2.92;;;24.10;71.00;;;;;;5072100;28;20375;-50
2021/12/13 05:37:55;;;;;;;9.75;2.47;;;24.20;68.40;;;;;;5072019;28;20027;-53
2021/12/13 05:40:35;;;;;;;12.32;4.47;;;24.20;68.30;;;;;;5069219;28;20109;-58
2021/12/13 05:43:19;;;;;;;8.20;2.28;;;24.30;73.00;;;;;;5071500;28;20036;-56
2021/12/13 05:46:00;;;;;;;6.53;2.13;;;24.30;70.00;;;;;;5069926;28;20472;-57
2021/12/13 05:48:36;;;;;;;7.63;2.88;;;24.30;67.00;;;;;;5071998;28;20025;-54
2021/12/13 05:51:29;;;;;;;8.98;2.58;;;24.40;72.40;;;;;;5066541;28;20059;-53
2021/12/13 05:54:02;;;;;;;8.82;3.25;;;24.20;67.30;;;;;;5068648;28;20048;-56
2021/12/13 05:56:38;;;;;;;9.77;3.58;;;24.20;69.60;;;;;;5070878;28;20081;-53
2021/12/13 05:59:13;;;;;;;9.63;2.72;;;24.30;71.50;;;;;;5070983;28;20425;-53
2021/12/13 06:01:57;;;;;;;7.80;2.22;;;24.30;72.80;;;;;;5068893;28;20017;-52
2021/12/13 06:05:00;;;;;;;6.30;2.38;;;24.40;72.20;;;;;;5071890;28;20082;-50
2021/12/13 06:07:33;;;;;;;11.98;2.63;;;24.40;73.40;;;;;;5070367;28;20032;-59
2021/12/13 06:10:09;;;;;;;10.07;2.13;;;24.50;73.20;;;;;;5067545;28;20071;-58
2021/12/13 06:12:49;;;;;;;5.55;1.98;;;24.50;73.90;;;;;;5074501;28;20039;-57
2021/12/13 06:15:17;;;;;;;7.18;2.15;;;24.50;73.40;;;;;;5074364;28;20090;-57
2021/12/13 06:17:49;;;;;;;5.53;2.10;;;24.50;73.60;;;;;;5074558;28;20020;-53
2021/12/13 06:20:23;;;;;;;5.43;1.98;;;24.50;73.50;;;;;;5073989;28;20039;-56
2021/12/13 06:22:51;;;;;;;7.25;2.03;;;24.50;73.80;;;;;;5075164;28;20020;-56
2021/12/13 06:25:24;;;;;;;6.47;2.30;;;24.40;74.10;;;;;;5074336;28;20107;-57
2021/12/13 06:27:59;;;;;;;7.93;2.20;;;24.40;74.10;;;;;;5074344;28;20025;-56
2021/12/13 06:30:39;;;;;;;6.85;2.00;;;24.40;74.00;;;;;;5067015;28;20028;-52
2021/12/13 06:33:13;;;;;;;7.10;2.72;;;24.50;73.70;;;;;;5070750;28;20039;-57
2021/12/13 06:35:52;;;;;;;11.85;2.67;;;24.30;71.70;;;;;;5068517;28;20051;-54
2021/12/13 06:38:34;;;;;;;5.97;2.00;;;24.10;68.30;;;;;;5071230;28;20482;-52
2021/12/13 06:41:10;;;;;;;;;;;24.30;74.10;;;;;;5065889;28;20483;-55
2021/12/13 06:43:51;;;;;;;6.88;2.00;;;24.20;71.00;;;;;;5068067;28;19905;-52
2021/12/13 06:46:25;;;;;;;5.03;1.83;;;24.30;72.70;;;;;;5068908;28;20036;-57
2021/12/13 06:49:06;;;;;;;5.50;1.77;;;24.30;71.30;;;;;;5071051;28;20491;-54
2021/12/13 06:52:01;;;;;;;5.78;1.60;;;24.20;74.50;;;;;;5070129;28;20064;-57
2021/12/13 06:54:49;;;;;;;9.20;2.58;;;24.20;69.30;;;;;;5067870;28;20434;-58
2021/12/13 06:57:19;;;;;;;5.82;1.95;;;24.20;71.20;;;;;;5073298;28;20043;-52
2021/12/13 07:00:01;;;;;;;6.60;2.25;;;24.30;73.40;;;;;;5073136;28;20024;-57
2021/12/13 07:02:43;;;;;;;7.57;2.38;;;24.40;73.00;;;;;;5073172;28;20103;-55
2021/12/13 07:05:18;;;;;;;5.95;2.00;;;24.40;69.70;;;;;;5073431;28;20051;-53
2021/12/13 07:07:59;;;;;;;7.53;2.53;;;24.40;72.70;;;;;;5073584;28;20025;-57
2021/12/13 07:10:39;;;;;;;6.70;2.17;;;24.40;72.30;;;;;;5073769;28;20045;-56
2021/12/13 07:13:11;;;;;;;8.98;3.65;;;24.50;72.80;;;;;;5073421;28;20111;-56
2021/12/13 07:15:49;;;;;;;9.23;2.20;;;24.40;73.00;;;;;;5073105;28;20475;-55
2021/12/13 07:18:29;;;;;;;5.18;2.15;;;24.40;73.40;;;;;;5072703;28;20024;-54
2021/12/13 07:21:09;;;;;;;9.65;2.83;;;24.40;73.90;;;;;;5073175;28;20029;-56
2021/12/13 07:24:16;;;;;;;5.70;2.35;;;24.40;72.50;;;;;;5073507;28;20036;-55
2021/12/13 07:26:56;;;;;;;6.50;2.42;;;24.40;74.10;;;;;;5011436;28;20022;-50
2021/12/13 07:29:43;;;;;;;7.45;2.15;;;24.40;73.30;;;;;;5011291;28;20461;-55
2021/12/13 07:32:31;;;;;;;11.40;2.35;;;24.50;73.80;;;;;;5055969;28;20036;-56
2021/12/13 07:35:06;;;;;;;6.45;2.55;;;24.50;73.60;;;;;;5071825;28;20024;-54
2021/12/13 07:37:42;;;;;;;9.38;2.30;;;24.40;73.40;;;;;;5062757;28;20248;-59
2021/12/13 07:40:24;;;;;;;6.30;2.55;;;24.40;73.10;;;;;;5068823;28;20111;-60
2021/12/13 07:43:17;;;;;;;6.75;2.63;;;24.30;73.50;;;;;;5070336;28;20025;-56
2021/12/13 07:46:01;;;;;;;8.07;2.65;;;24.30;74.30;;;;;;5069217;28;20020;-57
2021/12/13 07:48:35;;;;;;;11.75;2.70;;;24.30;74.10;;;;;;5062223;28;20024;-56
2021/12/13 07:51:28;;;;;;;7.18;2.50;;;24.30;72.80;;;;;;5066894;28;20024;-56
2021/12/13 07:53:58;;;;;;;5.97;2.30;;;24.20;75.50;;;;;;5066358;28;20048;-59
2021/12/13 07:56:42;;;;;;;7.53;2.47;;;24.20;74.20;;;;;;5068152;28;20038;-59
2021/12/13 07:59:24;;;;;;;8.55;2.72;;;24.10;73.40;;;;;;5063916;28;20020;-58
2021/12/13 08:02:23;;;;;;;7.38;2.63;;;24.20;74.90;;;;;;5069538;28;20483;-57
2021/12/13 08:04:54;;;;;;;10.82;2.70;;;24.20;74.40;;;;;;5067876;28;20086;-56
2021/12/13 08:08:01;;;;;;;9.05;2.58;;;24.10;74.80;;;;;;5065182;28;20032;-56
2021/12/13 08:10:34;;;;;;;9.88;2.85;;;24.10;74.20;;;;;;5069523;28;20020;-56
2021/12/13 08:13:13;;;;;;;7.90;2.80;;;24.10;75.90;;;;;;5052646;28;20049;-68
2021/12/13 08:15:50;;;;;;;8.98;2.58;;;24.10;75.70;;;;;;5054273;28;20065;-74
2021/12/13 08:18:44;;;;;;;13.75;3.00;;;24.00;77.00;;;;;;5054914;28;20399;-72
2021/12/13 08:21:21;;;;;;;17.83;4.43;;;23.90;77.10;;;;;;5053629;28;20037;-68
2021/12/13 08:23:52;;;;;;;12.75;3.10;;;23.90;77.20;;;;;;5054352;28;20028;-70
2021/12/13 08:26:31;;;;;;;18.77;3.95;;;23.90;77.70;;;;;;5054543;28;20024;-76
2021/12/13 08:29:02;;;;;;;22.38;3.50;;;23.90;77.30;;;;;;5054760;28;20025;-75
2021/12/13 08:31:34;;;;;;;19.70;2.85;;;23.70;77.90;;;;;;5053544;28;20475;-69
2021/12/13 08:34:07;;;;;;;;;;;23.70;78.20;;;;;;5053292;28;20566;-71
2021/12/13 08:36:39;;;;;;;14.60;3.70;;;23.60;78.60;;;;;;5053678;28;19984;-70
2021/12/13 08:39:22;;;;;;;19.55;3.78;;;23.60;78.30;;;;;;5053824;28;20029;-74
2021/12/13 08:41:55;;;;;;;10.30;2.78;;;23.60;77.90;;;;;;5053784;28;20060;-76
2021/12/13 08:44:30;;;;;;;12.80;3.15;;;23.70;78.50;;;;;;5054292;28;20021;-69
2021/12/13 08:46:59;;;;;;;7.28;2.40;;;23.60;78.70;;;;;;5049572;28;20043;-66
2021/12/13 08:49:38;;;;;;;10.60;2.90;;;23.70;77.40;;;;;;5069951;28;20070;-65
2021/12/13 08:52:38;;;;;;;10.45;3.35;;;23.60;77.70;;;;;;5068373;28;20029;-67
2021/12/13 08:55:12;;;;;;;6.47;2.28;;;23.60;77.90;;;;;;5066966;28;20025;-63
2021/12/13 08:58:20;;;;;;;16.13;3.20;;;23.60;79.00;;;;;;5067536;28;20170;-70
2021/12/13 09:01:07;;;;;;;14.35;3.25;;;23.60;79.10;;;;;;5007582;28;20036;-70
2021/12/13 09:03:39;;;;;;;11.52;3.00;;;23.50;78.70;;;;;;5049406;28;20033;-71
2021/12/13 09:06:22;;;;;;;13.48;3.58;;;23.40;79.80;;;;;;5052639;28;20032;-69
2021/12/13 09:08:58;;;;;;;20.17;3.38;;;23.40;79.50;;;;;;5051883;28;20100;-66
2021/12/13 09:11:41;;;;;;;9.20;2.80;;;23.40;80.20;;;;;;5052360;28;20029;-65
2021/12/13 09:14:28;;;;;;;11.00;3.15;;;23.40;78.80;;;;;;5051867;28;20018;-55
2021/12/13 09:17:22;;;;;;;12.48;3.15;;;23.30;78.00;;;;;;5051738;28;20043;-57
2021/12/13 09:19:52;;;;;;;13.15;3.35;;;23.30;78.30;;;;;;5052134;28;20022;-59
2021/12/13 09:22:28;;;;;;;12.38;2.45;;;23.30;80.70;;;;;;5052378;28;20025;-58
2021/12/13 09:25:02;;;;;;;6.05;2.40;;;23.30;79.70;;;;;;5053978;28;20395;-53
2021/12/13 09:27:38;;;;;;;12.75;3.67;;;23.20;79.60;;;;;;5068401;28;20028;-52
2021/12/13 09:30:17;;;;;;;10.07;3.00;;;23.20;81.00;;;;;;5072342;28;20039;-51
2021/12/13 09:33:15;;;;;;;12.60;4.00;;;23.20;80.50;;;;;;5070605;28;20081;-51
2021/12/13 09:35:53;;;;;;;18.27;5.93;;;23.20;80.30;;;;;;5065254;28;20105;-59
2021/12/13 09:38:29;;;;;;;40.70;15.38;;;23.20;80.00;;;;;;5070598;28;20103;-53
2021/12/13 09:41:14;;;;;;;66.00;30.27;;;23.10;80.00;;;;;;5071412;28;20043;-50
2021/12/13 09:44:04;;;;;;;149.98;74.35;;;23.10;80.10;;;;;;5071101;28;20020;-58
2021/12/13 09:46:49;;;;;;;211.65;104.28;;;23.10;80.20;;;;;;5058533;28;20048;-55
2021/12/13 09:49:30;;;;;;;239.18;116.57;;;23.10;80.40;;;;;;5072897;28;20032;-52
2021/12/13 09:52:00;;;;;;;256.02;128.73;;;23.00;80.70;;;;;;5069171;28;20059;-52
2021/12/13 09:54:39;;;;;;;207.48;107.10;;;23.10;81.00;;;;;;5069280;28;20048;-51
2021/12/13 09:57:15;;;;;;;249.73;125.05;;;23.00;80.40;;;;;;5068871;28;20042;-56
2021/12/13 09:59:48;;;;;;;267.60;133.93;;;23.00;80.70;;;;;;5071304;28;20017;-49
2021/12/13 10:02:29;;;;;;;281.83;141.32;;;23.00;80.60;;;;;;5072540;28;20039;-56
2021/12/13 10:04:56;;;;;;;276.05;138.63;;;22.90;80.60;;;;;;5072560;28;20021;-55
2021/12/13 10:07:28;;;;;;;249.52;123.75;;;23.00;80.50;;;;;;5069240;28;20475;-55
2021/12/13 10:10:07;;;;;;;243.02;122.82;;;22.90;80.10;;;;;;5071645;28;20074;-55
2021/12/13 10:12:44;;;;;;;281.15;144.98;;;22.90;79.60;;;;;;5072418;28;20042;-57
2021/12/13 10:15:35;;;;;;;255.25;128.18;;;22.90;79.90;;;;;;5071349;28;20025;-56
2021/12/13 10:18:10;;;;;;;245.82;124.95;;;22.80;80.10;;;;;;5068807;28;20120;-57
2021/12/13 10:20:52;;;;;;;263.58;132.48;;;22.80;79.90;;;;;;5071832;28;20100;-54
2021/12/13 10:23:24;;;;;;;255.50;130.95;;;22.80;80.30;;;;;;5070661;28;20059;-56
2021/12/13 10:25:54;;;;;;;265.60;136.30;;;22.70;80.10;;;;;;5067553;28;20048;-50
2021/12/13 10:28:26;;;;;;;266.70;136.57;;;22.70;80.90;;;;;;5070870;28;20167;-52
2021/12/13 10:31:00;;;;;;;254.43;135.25;;;22.70;81.00;;;;;;5072204;28;20086;-49
2021/12/13 10:33:29;;;;;;;240.50;127.43;;;22.80;81.20;;;;;;5072237;28;20455;-52
2021/12/13 10:36:00;;;;;;;240.05;124.88;;;22.70;80.90;;;;;;5067845;28;20051;-52
2021/12/13 10:38:43;;;;;;;251.30;131.10;;;22.70;81.00;;;;;;5071561;28;20119;-52
2021/12/13 10:41:22;;;;;;;253.48;128.00;;;22.70;81.10;;;;;;5071361;28;20043;-52
2021/12/13 10:43:56;;;;;;;250.02;124.28;;;22.70;81.10;;;;;;5071619;28;20551;-51
2021/12/13 10:46:32;;;;;;;220.73;120.13;;;22.70;80.90;;;;;;5068271;28;20025;-49
2021/12/13 10:49:07;;;;;;;217.05;115.57;;;22.70;80.80;;;;;;5071276;28;20025;-50
2021/12/13 10:51:38;;;;;;;220.90;118.80;;;22.60;80.90;;;;;;5072083;28;20029;-46
2021/12/13 10:54:18;;;;;;;218.18;114.65;;;22.60;81.00;;;;;;5070554;28;20396;-51
2021/12/13 10:56:53;;;;;;;226.50;117.63;;;22.60;81.00;;;;;;5064951;28;20032;-54
2021/12/13 10:59:23;;;;;;;215.68;113.70;;;22.60;81.00;;;;;;5070175;28;20479;-49
2021/12/13 11:01:59;;;;;;;204.18;112.32;;;22.60;81.00;;;;;;5071074;28;20071;-54
2021/12/13 11:04:47;;;;;;;200.52;107.82;;;22.60;81.10;;;;;;5071251;28;20032;-52
2021/12/13 11:07:15;;;;;;;198.68;106.80;;;22.60;81.00;;;;;;5065255;28;20399;-55
2021/12/13 11:09:45;;;;;;;203.27;107.10;;;22.60;81.00;;;;;;5070818;28;20027;-48
2021/12/13 11:12:22;;;;;;;195.50;104.18;;;22.60;81.20;;;;;;5069827;28;20036;-50
2021/12/13 11:15:04;;;;;;;192.77;103.68;;;22.60;81.30;;;;;;5066950;28;20109;-51
2021/12/13 11:17:33;;;;;;;190.98;103.25;;;22.50;81.20;;;;;;5066843;28;20043;-49
2021/12/13 11:20:09;;;;;;;199.48;105.53;;;22.50;81.30;;;;;;5070097;28;21304;-53
2021/12/13 11:22:37;;;;;;;182.55;101.38;;;22.50;81.20;;;;;;5070064;28;20482;-56
2021/12/13 11:25:26;;;;;;;182.77;96.75;;;22.50;81.20;;;;;;5069834;28;20433;-51
2021/12/13 11:27:54;;;;;;;182.70;97.80;;;22.50;81.20;;;;;;5068850;28;20043;-46
2021/12/13 11:30:30;;;;;;;173.35;93.20;;;22.50;81.10;;;;;;5068280;28;20066;-50
2021/12/13 11:33:00;;;;;;;175.27;93.53;;;22.50;81.20;;;;;;5069564;28;20048;-54
2021/12/13 11:36:04;;;;;;;163.07;90.90;;;22.50;81.10;;;;;;5063378;28;20076;-51
2021/12/13 11:39:10;;;;;;;169.95;91.57;;;22.50;81.10;;;;;;5067905;28;20115;-52
2021/12/13 11:41:56;;;;;;;160.40;88.53;;;22.40;81.20;;;;;;5068135;28;20032;-52
2021/12/13 11:44:59;;;;;;;161.63;84.32;;;22.50;81.20;;;;;;5069578;28;20060;-53
2021/12/13 11:48:01;;;;;;;162.25;84.00;;;22.50;81.20;;;;;;5065855;28;20063;-54
2021/12/13 11:50:50;;;;;;;153.35;87.60;;;22.40;81.30;;;;;;5042046;28;20044;-51
2021/12/13 11:53:43;;;;;;;156.27;81.65;;;22.40;81.20;;;;;;5069866;28;20137;-54
2021/12/13 11:56:19;;;;;;;143.70;81.10;;;22.40;81.40;;;;;;5066158;28;20067;-52
2021/12/13 11:59:01;;;;;;;153.00;83.82;;;22.40;81.40;;;;;;5068251;28;20032;-55
2021/12/13 12:01:40;;;;;;;142.05;77.30;;;22.40;81.40;;;;;;5070000;28;20032;-51
2021/12/13 12:04:34;;;;;;;141.90;77.30;;;22.40;81.50;;;;;;5066060;28;20043;-51
2021/12/13 12:07:14;;;;;;;148.50;78.32;;;22.40;81.50;;;;;;5065174;28;20033;-45
2021/12/13 12:10:10;;;;;;;143.45;77.32;;;22.40;81.70;;;;;;5069949;28;20017;-48
2021/12/13 12:12:40;;;;;;;130.70;74.15;;;22.40;81.80;;;;;;5069662;28;20021;-49
2021/12/13 12:15:09;;;;;;;125.75;72.00;;;22.40;81.80;;;;;;5069843;28;20052;-54
2021/12/13 12:17:45;;;;;;;118.82;68.68;;;22.40;81.80;;;;;;5063797;28;20041;-47
2021/12/13 12:20:16;;;;;;;138.50;73.35;;;22.40;81.80;;;;;;5068744;28;20021;-49
2021/12/13 12:22:50;;;;;;;122.82;69.00;;;22.40;81.90;;;;;;5066403;28;20025;-49
2021/12/13 12:25:19;;;;;;;115.90;66.57;;;22.40;81.80;;;;;;5066668;28;20032;-53
2021/12/13 12:27:56;;;;;;;121.63;65.70;;;22.40;82.50;;;;;;5068659;28;20029;-52
2021/12/13 12:30:29;;;;;;;112.88;61.22;;;22.40;81.60;;;;;;5069927;28;20054;-51
2021/12/13 12:33:00;;;;;;;108.20;58.17;;;22.40;81.90;;;;;;5069300;28;20028;-56
2021/12/13 12:35:50;;;;;;;110.35;61.08;;;22.40;81.80;;;;;;5064189;28;20044;-55
2021/12/13 12:38:57;;;;;;;104.93;57.92;;;22.40;81.70;;;;;;5067715;28;20041;-49
2021/12/13 12:42:02;;;;;;;103.65;56.40;;;22.40;81.70;;;;;;5068077;28;20021;-54
2021/12/13 12:45:04;;;;;;;93.25;53.75;;;22.40;81.80;;;;;;5071901;28;20071;-58
2021/12/13 12:47:35;;;;;;;104.22;57.38;;;22.40;81.70;;;;;;5051377;28;20037;-62
2021/12/13 12:50:26;;;;;;;103.43;57.80;;;22.30;81.60;;;;;;5052785;28;20025;-58
2021/12/13 12:53:18;;;;;;;102.30;56.50;;;22.30;81.80;;;;;;5050881;28;20037;-52
2021/12/13 12:56:18;;;;;;;88.38;51.97;;;22.30;81.60;;;;;;5051827;28;20792;-60
2021/12/13 12:59:04;;;;;;;91.30;51.65;;;22.30;81.60;;;;;;5053076;28;20025;-60
2021/12/13 13:01:38;;;;;;;98.78;56.17;;;22.20;81.70;;;;;;5055404;28;20021;-61
2021/12/13 13:04:20;;;;;;;100.22;52.92;;;22.30;81.90;;;;;;5066197;28;20421;-55
2021/12/13 13:07:18;;;;;;;91.22;50.00;;;22.20;82.10;;;;;;5072620;28;20025;-49
2021/12/13 13:10:03;;;;;;;91.40;50.70;;;22.20;82.20;;;;;;5073132;28;20415;-50
2021/12/13 13:12:58;;;;;;;96.22;52.40;;;22.10;82.20;;;;;;5073454;28;20078;-53
2021/12/13 13:15:40;;;;;;;89.93;50.38;;;22.10;82.20;;;;;;5066400;28;20394;-44
2021/12/13 13:18:18;;;;;;;81.03;47.80;;;22.10;82.30;;;;;;5073172;28;20025;-60
2021/12/13 13:21:09;;;;;;;91.60;49.08;;;22.10;82.40;;;;;;5073196;28;20040;-54
2021/12/13 13:23:47;;;;;;;80.65;46.90;;;22.10;82.40;;;;;;5069434;28;20403;-51
2021/12/13 13:26:17;;;;;;;76.07;44.88;;;22.00;82.40;;;;;;5070507;28;20070;-58
2021/12/13 13:28:53;;;;;;;80.35;45.42;;;22.00;82.50;;;;;;5073163;28;20592;-51
2021/12/13 13:31:42;;;;;;;79.60;45.33;;;22.00;82.60;;;;;;5073832;28;20024;-54
2021/12/13 13:34:20;;;;;;;80.88;45.30;;;22.00;82.60;;;;;;5071478;28;20032;-52
2021/12/13 13:36:54;;;;;;;78.93;44.58;;;21.90;82.70;;;;;;5070284;28;20040;-56
2021/12/13 13:39:29;;;;;;;78.50;45.08;;;21.90;82.90;;;;;;5073690;28;20024;-50
2021/12/13 13:42:06;;;;;;;79.20;45.40;;;21.90;83.00;;;;;;5071842;28;20097;-56
2021/12/13 13:44:58;;;;;;;73.88;43.75;;;21.90;83.10;;;;;;5073366;28;20538;-54